PrentiSS Brown — WDE6848 — position and weather

sailwx.info

Track history (hours):
 
Tides and Currents Weather Stations Pressure Air Temp Water Temp Dewpoint Dewpoint Depression Visibility Wind Speed Wind Dir Waves Ship Positions

PrentiSS Brown

Owner: Port City Marine Services Inc, Muskegon, MI. More information available from US FCC via Universal Licensing System and Coast Guard Vessel Documentation Center.

Last reported at 2017-Oct-20 23:45 UTC. Time now 2017-Oct-22 17:41 UTC.
Position N 45°13' W 085°39'.

; draft 7 m.

Type: Other ship. MMSI: 366922280.

Date/timePositionNaut miles runAvg speedWind from/ knotsBaromVisibWave heightAir tempDewpointWater temp
2017-Oct-20 23:45N 45°13' W 085°39'2 7.6
2017-Oct-20 23:30N 45°14' W 085°37'4 7.6
2017-Oct-20 23:00N 45°16' W 085°32'4 7.6
2017-Oct-20 22:30N 45°17' W 085°27'4 7.6
2017-Oct-20 22:00N 45°19' W 085°22'3 6.8
2017-Oct-20 21:30N 45°20' W 085°18'1 1.5
2017-Oct-20 21:00N 45°19' W 085°18'0 0.0
2017-Oct-20 20:30N 45°19' W 085°18'0 0.0
2017-Oct-20 20:00N 45°19' W 085°18'0 0.0
2017-Oct-20 19:30N 45°19' W 085°18'0 0.0
2017-Oct-20 19:00N 45°19' W 085°18'0 0.0
2017-Oct-20 18:30N 45°19' W 085°18'0 0.0
2017-Oct-20 18:00N 45°19' W 085°18'0 0.0
2017-Oct-20 17:30N 45°19' W 085°18'0 0.0
2017-Oct-20 17:00N 45°19' W 085°18'0 0.0
2017-Oct-20 16:30N 45°19' W 085°18'0 0.0
2017-Oct-20 16:00N 45°19' W 085°18'0 0.0
2017-Oct-20 15:30N 45°19' W 085°18'0 0.0
2017-Oct-20 15:00N 45°19' W 085°18'0 0.0
2017-Oct-20 14:00N 45°19' W 085°18'1 1.1
2017-Oct-20 13:30N 45°19' W 085°17'1 1.8
2017-Oct-20 13:00N 45°20' W 085°17'1 1.3
2017-Oct-20 12:30N 45°21' W 085°17'1 2.6
2017-Oct-20 12:00N 45°22' W 085°18'1 1.3
2017-Oct-20 11:30N 45°22' W 085°19'1 1.1
2017-Oct-20 11:00N 45°21' W 085°19'1 2.8
2017-Oct-20 10:30N 45°20' W 085°20'4 7.7
2017-Oct-20 10:00N 45°18' W 085°25'4 8.0
2017-Oct-20 09:30N 45°16' W 085°30'4 8.0
2017-Oct-20 09:00N 45°14' W 085°35'4 8.0
2017-Oct-20 08:30N 45°12' W 085°40'  
2017-Oct-14 10:25N 45°32' W 085°42'3 7.8
2017-Oct-14 10:00N 45°32' W 085°37'4 8.3
2017-Oct-14 09:30N 45°30' W 085°33'4 8.2
2017-Oct-14 09:00N 45°27' W 085°29'4 8.1
2017-Oct-14 08:30N 45°24' W 085°25'4 8.1
2017-Oct-14 08:00N 45°21' W 085°20'3 6.1
2017-Oct-14 07:30N 45°19' W 085°17'0 0.8
2017-Oct-14 07:00N 45°19' W 085°18'0 0.0
2017-Oct-14 06:30N 45°19' W 085°18'0 0.0
2017-Oct-14 06:00N 45°19' W 085°18'0 0.0
2017-Oct-14 05:30N 45°19' W 085°18'0 0.0
2017-Oct-14 05:00N 45°19' W 085°18'0 0.0
2017-Oct-14 04:30N 45°19' W 085°18'0 0.0
2017-Oct-14 04:00N 45°19' W 085°18'0 0.0
2017-Oct-14 03:30N 45°19' W 085°18'0 0.0
2017-Oct-14 03:00N 45°19' W 085°18'0 0.0
2017-Oct-14 02:30N 45°19' W 085°18'0 0.0
2017-Oct-14 02:00N 45°19' W 085°18'0 0.0
2017-Oct-14 01:30N 45°19' W 085°18'1 2.3
2017-Oct-14 01:00N 45°20' W 085°18'4 8.2
2017-Oct-14 00:30N 45°19' W 085°23'4 8.9
2017-Oct-14 00:00N 45°17' W 085°29'8 0.2
2017-Oct-11 21:19N 45°13' W 085°38'3 8.7
2017-Oct-11 21:00N 45°14' W 085°35'4 8.4
2017-Oct-11 20:30N 45°16' W 085°30'4 8.4
2017-Oct-11 20:00N 45°18' W 085°25'4 8.5
2017-Oct-11 19:30N 45°20' W 085°19'1 3.0
2017-Oct-11 19:00N 45°19' W 085°17'0 0.3
2017-Oct-11 18:30N 45°19' W 085°18'0 0.0
2017-Oct-11 18:00N 45°19' W 085°18'0 0.0
2017-Oct-11 17:30N 45°19' W 085°18'0 0.0
2017-Oct-11 17:00N 45°19' W 085°18'  
Track history (hours):
 
Tides and Currents Weather Stations Pressure Air Temp Water Temp Dewpoint Dewpoint Depression Visibility Wind Speed Wind Dir Waves Ship Positions

PrentiSS Brown

Owner: Port City Marine Services Inc, Muskegon, MI. More information available from US FCC via Universal Licensing System and Coast Guard Vessel Documentation Center.

Last reported at 2017-Oct-20 23:45 UTC. Time now 2017-Oct-22 17:41 UTC.
Position N 45°13' W 085°39'.

; draft 7 m.

Type: Other ship. MMSI: 366922280.

Date/timePositionNaut miles runAvg speedWind from/ knotsBaromVisibWave heightAir tempDewpointWater temp
2017-Oct-20 23:45N 45°13' W 085°39'2 7.6
2017-Oct-20 23:30N 45°14' W 085°37'4 7.6
2017-Oct-20 23:00N 45°16' W 085°32'4 7.6
2017-Oct-20 22:30N 45°17' W 085°27'4 7.6
2017-Oct-20 22:00N 45°19' W 085°22'3 6.8
2017-Oct-20 21:30N 45°20' W 085°18'1 1.5
2017-Oct-20 21:00N 45°19' W 085°18'0 0.0
2017-Oct-20 20:30N 45°19' W 085°18'0 0.0
2017-Oct-20 20:00N 45°19' W 085°18'0 0.0
2017-Oct-20 19:30N 45°19' W 085°18'0 0.0
2017-Oct-20 19:00N 45°19' W 085°18'0 0.0
2017-Oct-20 18:30N 45°19' W 085°18'0 0.0
2017-Oct-20 18:00N 45°19' W 085°18'0 0.0
2017-Oct-20 17:30N 45°19' W 085°18'0 0.0
2017-Oct-20 17:00N 45°19' W 085°18'0 0.0
2017-Oct-20 16:30N 45°19' W 085°18'0 0.0
2017-Oct-20 16:00N 45°19' W 085°18'0 0.0
2017-Oct-20 15:30N 45°19' W 085°18'0 0.0
2017-Oct-20 15:00N 45°19' W 085°18'0 0.0
2017-Oct-20 14:00N 45°19' W 085°18'1 1.1
2017-Oct-20 13:30N 45°19' W 085°17'1 1.8
2017-Oct-20 13:00N 45°20' W 085°17'1 1.3
2017-Oct-20 12:30N 45°21' W 085°17'1 2.6
2017-Oct-20 12:00N 45°22' W 085°18'1 1.3
2017-Oct-20 11:30N 45°22' W 085°19'1 1.1
2017-Oct-20 11:00N 45°21' W 085°19'1 2.8
2017-Oct-20 10:30N 45°20' W 085°20'4 7.7
2017-Oct-20 10:00N 45°18' W 085°25'4 8.0
2017-Oct-20 09:30N 45°16' W 085°30'4 8.0
2017-Oct-20 09:00N 45°14' W 085°35'4 8.0
2017-Oct-20 08:30N 45°12' W 085°40'  
2017-Oct-14 10:25N 45°32' W 085°42'3 7.8
2017-Oct-14 10:00N 45°32' W 085°37'4 8.3
2017-Oct-14 09:30N 45°30' W 085°33'4 8.2
2017-Oct-14 09:00N 45°27' W 085°29'4 8.1
2017-Oct-14 08:30N 45°24' W 085°25'4 8.1
2017-Oct-14 08:00N 45°21' W 085°20'3 6.1
2017-Oct-14 07:30N 45°19' W 085°17'0 0.8
2017-Oct-14 07:00N 45°19' W 085°18'0 0.0
2017-Oct-14 06:30N 45°19' W 085°18'0 0.0
2017-Oct-14 06:00N 45°19' W 085°18'0 0.0
2017-Oct-14 05:30N 45°19' W 085°18'0 0.0
2017-Oct-14 05:00N 45°19' W 085°18'0 0.0
2017-Oct-14 04:30N 45°19' W 085°18'0 0.0
2017-Oct-14 04:00N 45°19' W 085°18'0 0.0
2017-Oct-14 03:30N 45°19' W 085°18'0 0.0
2017-Oct-14 03:00N 45°19' W 085°18'0 0.0
2017-Oct-14 02:30N 45°19' W 085°18'0 0.0
2017-Oct-14 02:00N 45°19' W 085°18'0 0.0
2017-Oct-14 01:30N 45°19' W 085°18'1 2.3
2017-Oct-14 01:00N 45°20' W 085°18'4 8.2
2017-Oct-14 00:30N 45°19' W 085°23'4 8.9
2017-Oct-14 00:00N 45°17' W 085°29'8 0.2
2017-Oct-11 21:19N 45°13' W 085°38'3 8.7
2017-Oct-11 21:00N 45°14' W 085°35'4 8.4
2017-Oct-11 20:30N 45°16' W 085°30'4 8.4
2017-Oct-11 20:00N 45°18' W 085°25'4 8.5
2017-Oct-11 19:30N 45°20' W 085°19'1 3.0
2017-Oct-11 19:00N 45°19' W 085°17'0 0.3
2017-Oct-11 18:30N 45°19' W 085°18'0 0.0
2017-Oct-11 18:00N 45°19' W 085°18'0 0.0
2017-Oct-11 17:30N 45°19' W 085°18'0 0.0
2017-Oct-11 17:00N 45°19' W 085°18'  

Dump ship's entire track history